sensor_id;sensor_type;location;lat;lon;timestamp;temperature;humidity
47514;DHT22;33951;51.988;5.910;2023-02-15T00:00:43;6.50;99.90
47514;DHT22;33951;51.988;5.910;2023-02-15T00:03:11;6.40;99.90
47514;DHT22;33951;51.988;5.910;2023-02-15T00:05:59;6.30;99.90
47514;DHT22;33951;51.988;5.910;2023-02-15T00:08:24;6.30;99.90
47514;DHT22;33951;51.988;5.910;2023-02-15T00:11:03;6.30;99.90
47514;DHT22;33951;51.988;5.910;2023-02-15T00:13:31;6.20;99.90
47514;DHT22;33951;51.988;5.910;2023-02-15T00:16:05;6.30;99.90
47514;DHT22;33951;51.988;5.910;2023-02-15T00:18:36;6.30;99.90
47514;DHT22;33951;51.988;5.910;2023-02-15T00:21:22;6.30;99.90
47514;DHT22;33951;51.988;5.910;2023-02-15T00:23:50;6.40;99.90
47514;DHT22;33951;51.988;5.910;2023-02-15T00:26:18;6.30;99.90
47514;DHT22;33951;51.988;5.910;2023-02-15T00:28:44;6.30;99.90
47514;DHT22;33951;51.988;5.910;2023-02-15T00:31:11;6.30;99.90
47514;DHT22;33951;51.988;5.910;2023-02-15T00:33:39;6.30;99.90
47514;DHT22;33951;51.988;5.910;2023-02-15T00:36:07;6.20;99.90
47514;DHT22;33951;51.988;5.910;2023-02-15T00:38:38;6.20;99.90
47514;DHT22;33951;51.988;5.910;2023-02-15T00:41:06;6.20;99.90
47514;DHT22;33951;51.988;5.910;2023-02-15T00:43:35;6.10;99.90
47514;DHT22;33951;51.988;5.910;2023-02-15T00:46:04;6.20;99.90
47514;DHT22;33951;51.988;5.910;2023-02-15T00:48:32;6.20;99.90
47514;DHT22;33951;51.988;5.910;2023-02-15T00:51:01;6.00;99.90
47514;DHT22;33951;51.988;5.910;2023-02-15T00:53:34;6.00;99.90
47514;DHT22;33951;51.988;5.910;2023-02-15T00:56:02;6.00;99.90
47514;DHT22;33951;51.988;5.910;2023-02-15T00:58:28;6.00;99.90
47514;DHT22;33951;51.988;5.910;2023-02-15T14:14:28;14.70;99.90
47514;DHT22;33951;51.988;5.910;2023-02-15T14:20:29;14.60;99.90
47514;DHT22;33951;51.988;5.910;2023-02-15T14:33:38;14.20;99.90
47514;DHT22;33951;51.988;5.910;2023-02-15T14:37:19;14.30;99.90
47514;DHT22;33951;51.988;5.910;2023-02-15T15:52:59;13.10;99.90
47514;DHT22;33951;51.988;5.910;2023-02-15T15:55:44;13.10;99.90
47514;DHT22;33951;51.988;5.910;2023-02-15T15:58:17;13.10;99.90
47514;DHT22;33951;51.988;5.910;2023-02-15T16:03:41;12.90;99.90
47514;DHT22;33951;51.988;5.910;2023-02-15T16:06:35;12.90;99.90
47514;DHT22;33951;51.988;5.910;2023-02-15T16:09:25;12.80;99.90
47514;DHT22;33951;51.988;5.910;2023-02-15T16:12:01;12.80;99.90
47514;DHT22;33951;51.988;5.910;2023-02-15T16:15:30;12.70;99.90
47514;DHT22;33951;51.988;5.910;2023-02-15T16:18:31;12.60;99.90
47514;DHT22;33951;51.988;5.910;2023-02-15T16:21:22;12.70;99.90
47514;DHT22;33951;51.988;5.910;2023-02-15T16:29:44;12.90;99.90
47514;DHT22;33951;51.988;5.910;2023-02-15T16:32:29;13.00;99.90
47514;DHT22;33951;51.988;5.910;2023-02-15T16:35:27;13.00;99.90
47514;DHT22;33951;51.988;5.910;2023-02-15T17:20:50;11.30;99.90
47514;DHT22;33951;51.988;5.910;2023-02-15T18:56:12;10.00;99.90
47514;DHT22;33951;51.988;5.910;2023-02-15T18:58:39;9.90;99.90
47514;DHT22;33951;51.988;5.910;2023-02-15T19:01:11;9.90;99.90
47514;DHT22;33951;51.988;5.910;2023-02-15T19:03:48;9.80;99.90
47514;DHT22;33951;51.988;5.910;2023-02-15T19:06:20;9.60;99.90
47514;DHT22;33951;51.988;5.910;2023-02-15T19:08:48;9.30;99.90
47514;DHT22;33951;51.988;5.910;2023-02-15T21:32:59;8.20;99.90
47514;DHT22;33951;51.988;5.910;2023-02-15T21:35:36;8.20;99.90
47514;DHT22;33951;51.988;5.910;2023-02-15T21:38:13;8.40;99.90
47514;DHT22;33951;51.988;5.910;2023-02-15T21:40:45;8.50;99.90
47514;DHT22;33951;51.988;5.910;2023-02-15T21:43:23;8.60;99.90
47514;DHT22;33951;51.988;5.910;2023-02-15T21:46:25;8.50;99.90
47514;DHT22;33951;51.988;5.910;2023-02-15T21:49:20;8.50;99.90
47514;DHT22;33951;51.988;5.910;2023-02-15T21:52:01;8.40;99.90
47514;DHT22;33951;51.988;5.910;2023-02-15T21:54:59;8.30;99.90
47514;DHT22;33951;51.988;5.910;2023-02-15T21:57:39;8.40;99.90
47514;DHT22;33951;51.988;5.910;2023-02-15T22:00:24;8.40;99.90
47514;DHT22;33951;51.988;5.910;2023-02-15T22:02:57;8.20;99.90
47514;DHT22;33951;51.988;5.910;2023-02-15T22:05:30;8.20;99.90
47514;DHT22;33951;51.988;5.910;2023-02-15T22:11:18;8.20;99.90
47514;DHT22;33951;51.988;5.910;2023-02-15T22:13:47;8.20;99.90
47514;DHT22;33951;51.988;5.910;2023-02-15T22:26:43;8.10;99.90
47514;DHT22;33951;51.988;5.910;2023-02-15T22:29:35;8.00;99.90
47514;DHT22;33951;51.988;5.910;2023-02-15T22:32:21;7.90;99.90
47514;DHT22;33951;51.988;5.910;2023-02-15T22:34:57;7.80;99.90
47514;DHT22;33951;51.988;5.910;2023-02-15T22:37:22;7.80;99.90
47514;DHT22;33951;51.988;5.910;2023-02-15T22:40:15;7.80;99.90
47514;DHT22;33951;51.988;5.910;2023-02-15T22:42:54;7.90;99.90
47514;DHT22;33951;51.988;5.910;2023-02-15T22:45:55;7.90;99.90
47514;DHT22;33951;51.988;5.910;2023-02-15T22:48:30;7.70;99.90
47514;DHT22;33951;51.988;5.910;2023-02-15T22:51:18;7.70;99.90
47514;DHT22;33951;51.988;5.910;2023-02-15T22:53:47;7.90;99.90
47514;DHT22;33951;51.988;5.910;2023-02-15T22:56:46;7.90;99.90
47514;DHT22;33951;51.988;5.910;2023-02-15T22:59:29;7.80;99.90
47514;DHT22;33951;51.988;5.910;2023-02-15T23:01:59;7.60;99.90
47514;DHT22;33951;51.988;5.910;2023-02-15T23:04:31;7.60;99.90
47514;DHT22;33951;51.988;5.910;2023-02-15T23:07:18;7.50;99.90
